createdAt,value
2022-12-15T00:00:43.312Z,8.75
2022-12-15T00:03:47.771Z,9.73
2022-12-15T00:06:53.348Z,7.60
2022-12-15T00:09:57.505Z,11.40
2022-12-15T00:13:01.916Z,10.27
2022-12-15T00:16:07.908Z,7.80
2022-12-15T00:19:12.289Z,8.02
2022-12-15T00:22:16.905Z,8.60
2022-12-15T00:25:21.703Z,9.00
2022-12-15T00:28:26.233Z,9.00
2022-12-15T00:31:30.841Z,9.85
2022-12-15T00:34:35.441Z,10.73
2022-12-15T00:37:39.838Z,9.90
2022-12-15T00:40:25.597Z,11.90
2022-12-15T00:43:12.205Z,10.65
2022-12-15T00:46:17.089Z,9.63
2022-12-15T00:49:03.489Z,10.73
2022-12-15T00:52:07.708Z,11.60
2022-12-15T00:55:12.149Z,18.90
2022-12-15T00:58:17.828Z,10.75
2022-12-15T01:01:27.052Z,10.63
2022-12-15T01:04:31.373Z,9.13
2022-12-15T01:07:36.640Z,8.02
2022-12-15T01:10:41.267Z,7.55
2022-12-15T01:13:45.883Z,6.97
2022-12-15T01:16:54.554Z,8.63
2022-12-15T01:19:58.926Z,7.57
2022-12-15T01:22:46.592Z,9.05
2022-12-15T01:25:32.485Z,8.13
2022-12-15T01:28:19.408Z,7.63
2022-12-15T01:31:12.500Z,8.23
2022-12-15T01:33:58.348Z,8.90
2022-12-15T01:36:44.044Z,7.80
2022-12-15T01:39:49.847Z,10.05
2022-12-15T01:42:35.666Z,9.57
2022-12-15T01:45:24.425Z,10.73
2022-12-15T01:48:13.504Z,10.90
2022-12-15T01:51:11.428Z,11.00
2022-12-15T01:54:00.456Z,11.05
2022-12-15T01:56:49.659Z,11.05
2022-12-15T01:59:39.418Z,10.88
2022-12-15T02:02:27.307Z,14.48
2022-12-15T02:05:13.595Z,15.38
2022-12-15T02:08:00.178Z,12.85
2022-12-15T02:11:08.312Z,12.25
2022-12-15T02:14:24.563Z,8.73
2022-12-15T02:17:28.075Z,7.00
2022-12-15T02:20:35.758Z,5.70
2022-12-15T02:23:27.520Z,4.70
2022-12-15T02:26:47.118Z,5.35
2022-12-15T02:30:14.969Z,4.40
2022-12-15T02:33:19.336Z,4.07
2022-12-15T02:36:27.896Z,3.20
2022-12-15T02:39:14.630Z,3.50
2022-12-15T02:42:00.919Z,3.88
2022-12-15T02:44:56.379Z,5.18
2022-12-15T02:47:49.286Z,13.30
2022-12-15T02:50:58.277Z,16.17
2022-12-15T02:53:47.092Z,13.68
2022-12-15T02:56:50.508Z,12.95
2022-12-15T02:59:42.360Z,12.23
2022-12-15T03:02:31.527Z,13.48
2022-12-15T03:05:19.234Z,12.63
2022-12-15T03:08:05.230Z,12.00
2022-12-15T03:10:53.030Z,12.63
2022-12-15T03:13:41.647Z,15.60
2022-12-15T03:16:27.832Z,15.77
2022-12-15T03:19:13.971Z,18.70
2022-12-15T03:22:00.002Z,17.83
2022-12-15T03:24:45.846Z,18.40
2022-12-15T03:27:32.404Z,18.95
2022-12-15T03:30:18.969Z,19.02
2022-12-15T03:33:05.059Z,17.40
2022-12-15T03:35:51.355Z,19.20
2022-12-15T03:38:37.299Z,20.73
2022-12-15T03:41:23.042Z,20.50
2022-12-15T03:44:09.619Z,21.52
2022-12-15T03:47:01.270Z,21.70
2022-12-15T03:49:50.079Z,21.90
2022-12-15T03:52:36.201Z,28.92
2022-12-15T03:55:22.975Z,30.13
2022-12-15T03:58:08.721Z,27.05
2022-12-15T04:00:55.838Z,25.83
2022-12-15T04:03:41.650Z,21.85
2022-12-15T04:06:28.257Z,19.42
2022-12-15T04:09:14.343Z,15.95
2022-12-15T04:12:00.093Z,16.27
2022-12-15T04:14:45.779Z,14.50
2022-12-15T04:17:31.470Z,12.68
2022-12-15T04:20:17.271Z,11.13
2022-12-15T04:23:03.410Z,9.73
2022-12-15T04:26:08.522Z,9.43
2022-12-15T04:29:13.184Z,15.65
2022-12-15T04:32:17.223Z,44.20
2022-12-15T04:35:21.632Z,28.55
2022-12-15T04:38:26.080Z,16.33
2022-12-15T04:41:31.611Z,12.65
2022-12-15T04:44:36.500Z,10.00
2022-12-15T04:47:40.798Z,9.77
2022-12-15T04:50:45.162Z,9.70
2022-12-15T04:53:49.609Z,8.82
2022-12-15T04:56:54.156Z,8.40
2022-12-15T04:59:58.411Z,8.93
2022-12-15T05:03:03.066Z,10.23
2022-12-15T05:06:07.419Z,11.35
2022-12-15T05:09:12.052Z,10.50
2022-12-15T05:12:16.449Z,10.52
2022-12-15T05:15:21.721Z,8.98
2022-12-15T05:18:28.381Z,8.88
2022-12-15T05:21:35.437Z,9.27
2022-12-15T05:24:39.915Z,10.43
2022-12-15T05:27:44.551Z,10.05
2022-12-15T05:30:48.977Z,10.73
2022-12-15T05:33:35.250Z,10.50
2022-12-15T05:36:21.742Z,10.40
2022-12-15T05:39:07.811Z,11.07
2022-12-15T05:41:55.065Z,11.02
2022-12-15T05:44:41.019Z,10.93
2022-12-15T05:47:26.870Z,11.60
2022-12-15T05:50:13.026Z,14.85
2022-12-15T05:52:59.992Z,15.38
2022-12-15T05:55:45.751Z,16.15
2022-12-15T05:58:31.902Z,13.32
2022-12-15T06:01:19.195Z,18.90
2022-12-15T06:04:05.455Z,24.05
2022-12-15T06:06:51.388Z,31.17
2022-12-15T06:09:37.282Z,25.42
2022-12-15T06:12:23.092Z,17.95
2022-12-15T06:15:10.448Z,16.90
2022-12-15T06:17:56.742Z,16.98
2022-12-15T06:20:42.942Z,13.02
2022-12-15T06:23:29.587Z,14.73
2022-12-15T06:26:23.667Z,16.63
2022-12-15T06:31:55.948Z,18.30
2022-12-15T06:34:41.759Z,19.10
2022-12-15T06:37:27.444Z,15.30
2022-12-15T06:40:13.263Z,17.77
2022-12-15T06:42:59.247Z,14.77
2022-12-15T06:45:49.816Z,12.65
2022-12-15T06:48:35.838Z,13.60
2022-12-15T06:51:22.141Z,13.02
2022-12-15T06:54:11.286Z,12.20
2022-12-15T06:56:57.732Z,12.95
2022-12-15T06:59:43.737Z,21.73
2022-12-15T07:02:30.304Z,27.55
2022-12-15T07:05:16.600Z,35.03
2022-12-15T07:08:02.553Z,36.92
2022-12-15T07:10:48.347Z,35.88
2022-12-15T07:13:34.581Z,37.40
2022-12-15T07:16:22.492Z,35.63
2022-12-15T07:19:12.520Z,35.70
2022-12-15T07:21:59.089Z,33.45
2022-12-15T07:24:46.213Z,35.75
2022-12-15T07:27:42.219Z,31.50
2022-12-15T07:30:42.445Z,26.92
2022-12-15T07:33:28.963Z,23.85
2022-12-15T07:36:15.124Z,21.40
2022-12-15T07:39:01.564Z,18.48
2022-12-15T07:41:47.482Z,15.43
2022-12-15T07:44:35.321Z,16.80
2022-12-15T07:47:21.038Z,17.60
2022-12-15T07:50:07.852Z,18.40
2022-12-15T07:52:55.309Z,19.45
2022-12-15T07:56:05.506Z,20.48
2022-12-15T07:58:47.789Z,22.42
2022-12-15T08:01:35.335Z,22.38
2022-12-15T08:04:21.378Z,23.23
2022-12-15T08:07:09.005Z,21.02
2022-12-15T08:09:54.674Z,19.25
2022-12-15T08:12:40.509Z,20.25
2022-12-15T08:15:26.751Z,22.63
2022-12-15T08:18:12.773Z,20.92
2022-12-15T08:21:06.543Z,19.13
2022-12-15T08:26:38.588Z,17.90
2022-12-15T08:29:50.113Z,15.52
2022-12-15T08:32:30.992Z,10.35
2022-12-15T08:35:46.787Z,10.70
2022-12-15T08:38:23.548Z,11.63
2022-12-15T08:41:17.961Z,14.30
2022-12-15T08:44:08.326Z,13.65
2022-12-15T08:46:54.095Z,12.88
2022-12-15T08:49:40.224Z,12.02
2022-12-15T08:52:26.171Z,12.98
2022-12-15T08:55:11.912Z,13.30
2022-12-15T08:57:57.622Z,14.60
2022-12-15T09:00:43.323Z,14.15
2022-12-15T09:03:29.930Z,17.30
2022-12-15T09:06:18.638Z,18.35
2022-12-15T09:09:07.652Z,15.55
2022-12-15T09:11:53.660Z,16.00
2022-12-15T09:14:39.402Z,16.90
2022-12-15T09:17:25.162Z,16.70
2022-12-15T09:20:15.245Z,18.88
2022-12-15T09:23:03.462Z,16.17
2022-12-15T09:25:49.275Z,19.25
2022-12-15T09:28:35.595Z,18.27
2022-12-15T09:31:28.857Z,18.85
2022-12-15T09:34:16.184Z,18.02
2022-12-15T09:37:02.357Z,16.58
2022-12-15T09:39:49.075Z,18.70
2022-12-15T09:42:35.200Z,20.52
2022-12-15T09:45:37.690Z,19.80
2022-12-15T09:48:25.247Z,19.55
2022-12-15T09:51:15.478Z,18.23
2022-12-15T09:54:01.977Z,15.50
2022-12-15T09:56:53.345Z,15.15
2022-12-15T09:59:57.335Z,15.60
2022-12-15T10:06:16.680Z,13.07
2022-12-15T10:09:15.006Z,13.55
2022-12-15T10:12:08.935Z,13.82
2022-12-15T10:15:23.640Z,20.02
2022-12-15T10:18:35.303Z,16.08
2022-12-15T10:21:22.470Z,14.07
2022-12-15T10:24:44.498Z,11.77
2022-12-15T10:27:56.237Z,12.18
2022-12-15T10:30:58.945Z,13.02
2022-12-15T10:33:50.352Z,11.55
2022-12-15T10:36:36.237Z,12.27
2022-12-15T10:39:23.568Z,11.30
2022-12-15T10:42:17.041Z,10.38
2022-12-15T10:45:02.980Z,9.73
2022-12-15T10:47:59.061Z,8.60
2022-12-15T10:50:44.845Z,10.55
2022-12-15T10:53:37.655Z,11.15
2022-12-15T10:56:32.734Z,11.68
2022-12-15T10:59:34.187Z,13.88
2022-12-15T11:02:34.323Z,15.38
2022-12-15T11:05:20.785Z,16.42
2022-12-15T11:08:17.031Z,14.35
2022-12-15T11:11:26.010Z,11.90
2022-12-15T11:14:29.791Z,10.45
2022-12-15T11:17:21.633Z,8.85
2022-12-15T11:20:17.425Z,9.65
2022-12-15T11:23:13.981Z,11.40
2022-12-15T11:29:21.917Z,10.18
2022-12-15T11:32:11.259Z,10.70
2022-12-15T11:34:57.275Z,9.98
2022-12-15T11:37:44.263Z,12.95
2022-12-15T11:40:40.984Z,17.13
2022-12-15T11:43:46.442Z,21.55
2022-12-15T11:46:51.461Z,33.00
2022-12-15T11:49:59.135Z,26.95
2022-12-15T11:53:05.249Z,23.60
2022-12-15T11:56:06.981Z,18.38
2022-12-15T11:59:10.284Z,19.65
2022-12-15T12:05:22.786Z,21.27
2022-12-15T12:08:20.949Z,23.17
2022-12-15T12:11:23.228Z,28.05
2022-12-15T12:14:31.440Z,32.50
2022-12-15T12:17:27.974Z,32.42
2022-12-15T12:20:30.149Z,35.85
2022-12-15T12:23:32.294Z,30.73
2022-12-15T12:26:38.094Z,32.33
2022-12-15T12:29:30.821Z,34.25
2022-12-15T12:32:30.793Z,37.10
2022-12-15T12:35:31.858Z,38.55
2022-12-15T12:38:36.645Z,33.45
2022-12-15T12:41:44.036Z,31.77
2022-12-15T12:44:36.063Z,30.63
2022-12-15T12:47:44.841Z,31.65
2022-12-15T12:50:31.988Z,29.95
2022-12-15T12:53:32.990Z,32.63
2022-12-15T12:56:50.514Z,32.03
2022-12-15T12:59:39.242Z,35.85
2022-12-15T13:02:25.152Z,40.40
2022-12-15T13:05:33.207Z,36.22
2022-12-15T13:08:26.888Z,40.88
2022-12-15T13:11:53.795Z,33.30
2022-12-15T13:14:39.685Z,34.08
2022-12-15T13:17:31.324Z,35.38
2022-12-15T13:20:28.817Z,34.95
2022-12-15T13:23:23.992Z,35.53
2022-12-15T13:26:10.815Z,38.20
2022-12-15T13:28:57.245Z,37.55
2022-12-15T13:31:49.644Z,35.75
2022-12-15T13:34:38.956Z,34.60
2022-12-15T13:37:46.981Z,36.78
2022-12-15T13:40:35.351Z,35.17
2022-12-15T13:43:27.335Z,33.75
2022-12-15T13:46:20.667Z,36.53
2022-12-15T13:49:17.388Z,38.50
2022-12-15T13:52:12.597Z,31.23
2022-12-15T13:55:00.271Z,32.53
2022-12-15T13:57:57.320Z,31.02
2022-12-15T14:00:55.017Z,35.28
2022-12-15T14:03:41.080Z,30.60
2022-12-15T14:06:38.508Z,39.20
2022-12-15T14:09:29.055Z,34.38
2022-12-15T14:12:15.020Z,38.20
2022-12-15T14:15:01.464Z,36.95
2022-12-15T14:17:51.414Z,39.50
2022-12-15T14:20:41.257Z,41.97
2022-12-15T14:23:30.252Z,45.65
2022-12-15T14:26:16.631Z,45.83
2022-12-15T14:29:05.543Z,43.05
2022-12-15T14:31:56.605Z,41.20
2022-12-15T14:34:43.301Z,40.60
2022-12-15T14:37:29.387Z,40.17
2022-12-15T14:40:17.509Z,44.35
2022-12-15T14:43:04.946Z,47.80
2022-12-15T14:45:57.589Z,48.55
2022-12-15T14:48:50.507Z,53.65
2022-12-15T14:51:43.490Z,50.53
2022-12-15T14:54:31.754Z,50.95
2022-12-15T14:57:25.405Z,51.17
2022-12-15T15:03:04.784Z,9.65
2022-12-15T15:03:07.046Z,15.25
2022-12-15T15:03:18.487Z,51.75
2022-12-15T15:08:53.011Z,50.47
2022-12-15T15:11:40.900Z,53.88
2022-12-15T15:14:32.925Z,53.95
2022-12-15T15:17:27.038Z,52.17
2022-12-15T15:20:26.908Z,50.72
2022-12-15T15:23:19.376Z,53.78
2022-12-15T15:26:05.404Z,55.75
2022-12-15T15:28:51.621Z,55.78
2022-12-15T15:31:41.691Z,53.05
2022-12-15T15:34:28.093Z,49.08
2022-12-15T15:37:18.493Z,44.80
2022-12-15T15:40:06.723Z,44.22
2022-12-15T15:42:52.432Z,43.55
2022-12-15T15:45:39.683Z,43.67
2022-12-15T15:48:27.653Z,44.00
2022-12-15T15:51:14.313Z,42.83
2022-12-15T15:54:05.712Z,40.83
2022-12-15T15:56:51.705Z,46.88
2022-12-15T15:59:39.932Z,42.72
2022-12-15T16:02:26.074Z,41.28
2022-12-15T16:05:12.182Z,46.22
2022-12-15T16:07:58.682Z,45.20
2022-12-15T16:10:47.528Z,42.88
2022-12-15T16:13:33.341Z,44.50
2022-12-15T16:16:22.053Z,45.45
2022-12-15T16:19:08.132Z,40.55
2022-12-15T16:21:55.505Z,39.38
2022-12-15T16:24:42.561Z,40.45
2022-12-15T16:27:28.257Z,44.03
2022-12-15T16:30:23.577Z,45.17
2022-12-15T16:33:09.864Z,44.20
2022-12-15T16:35:55.924Z,44.13
2022-12-15T16:38:42.870Z,46.30
2022-12-15T16:41:28.575Z,43.03
2022-12-15T16:44:14.211Z,41.22
2022-12-15T16:46:59.997Z,40.03
2022-12-15T16:49:45.746Z,39.60
2022-12-15T16:52:31.392Z,38.55
2022-12-15T16:55:22.430Z,39.83
2022-12-15T16:58:12.030Z,40.80
2022-12-15T17:00:58.418Z,40.90
2022-12-15T17:03:44.551Z,45.28
2022-12-15T17:06:30.374Z,36.85
2022-12-15T17:09:20.963Z,37.25
2022-12-15T17:12:08.198Z,29.50
2022-12-15T17:14:54.264Z,31.20
2022-12-15T17:17:40.497Z,29.70
2022-12-15T17:20:30.273Z,27.92
2022-12-15T17:23:19.677Z,28.55
2022-12-15T17:26:28.502Z,28.52
2022-12-15T17:29:18.416Z,29.13
2022-12-15T17:32:06.145Z,30.42
2022-12-15T17:34:52.068Z,31.20
2022-12-15T17:37:38.269Z,29.05
2022-12-15T17:40:24.286Z,28.73
2022-12-15T17:43:23.000Z,25.70
2022-12-15T17:46:08.950Z,23.25
2022-12-15T17:48:55.081Z,23.45
2022-12-15T17:51:43.393Z,22.48
2022-12-15T17:54:30.000Z,24.05
2022-12-15T17:57:16.101Z,22.25
2022-12-15T18:00:02.071Z,21.10
2022-12-15T18:02:51.121Z,19.85
2022-12-15T18:05:37.534Z,19.88
2022-12-15T18:08:26.159Z,25.27
2022-12-15T18:11:15.783Z,26.45
2022-12-15T18:14:01.753Z,23.13
2022-12-15T18:16:47.557Z,23.58
2022-12-15T18:19:35.116Z,22.65
2022-12-15T18:22:23.438Z,21.20
2022-12-15T18:25:21.215Z,19.85
2022-12-15T18:28:28.680Z,23.98
2022-12-15T18:31:26.078Z,20.85
2022-12-15T18:34:21.151Z,19.70
2022-12-15T18:37:16.540Z,18.98
2022-12-15T18:40:04.935Z,21.38
2022-12-15T18:42:50.973Z,21.92
2022-12-15T18:45:36.670Z,23.63
2022-12-15T18:48:27.072Z,25.73
2022-12-15T18:51:19.776Z,24.15
2022-12-15T18:54:20.729Z,23.63
2022-12-15T18:57:28.097Z,24.05
2022-12-15T19:00:13.845Z,25.70
2022-12-15T19:03:02.414Z,25.10
2022-12-15T19:05:49.115Z,23.63
2022-12-15T19:08:36.244Z,26.70
2022-12-15T19:11:31.042Z,28.67
2022-12-15T19:14:36.777Z,24.83
2022-12-15T19:17:42.748Z,26.58
2022-12-15T19:20:47.312Z,25.92
2022-12-15T19:23:33.681Z,25.33
2022-12-15T19:26:19.922Z,26.20
2022-12-15T19:29:22.536Z,24.25
2022-12-15T19:32:08.836Z,25.58
2022-12-15T19:34:54.527Z,26.80
2022-12-15T19:37:42.893Z,23.30
2022-12-15T19:40:30.745Z,25.13
2022-12-15T19:43:17.378Z,23.55
2022-12-15T19:46:03.091Z,24.67
2022-12-15T19:48:48.697Z,22.50
2022-12-15T19:51:34.411Z,21.83
2022-12-15T19:54:22.206Z,23.17
2022-12-15T19:57:16.561Z,17.95
2022-12-15T20:00:03.174Z,20.50
2022-12-15T20:02:57.612Z,16.83
2022-12-15T20:05:44.067Z,17.48
2022-12-15T20:08:34.708Z,17.20
2022-12-15T20:11:21.581Z,19.58
2022-12-15T20:14:15.438Z,20.90
2022-12-15T20:19:47.937Z,21.08
2022-12-15T20:22:33.686Z,22.30
2022-12-15T20:25:23.991Z,21.00
2022-12-15T20:28:30.337Z,20.55
2022-12-15T20:31:18.321Z,19.38
2022-12-15T20:34:04.160Z,20.60
2022-12-15T20:36:50.138Z,22.30
2022-12-15T20:39:36.016Z,21.67
2022-12-15T20:42:22.265Z,23.23
2022-12-15T20:45:07.922Z,22.67
2022-12-15T20:47:55.053Z,25.75
2022-12-15T20:50:48.909Z,23.27
2022-12-15T20:53:35.142Z,22.92
2022-12-15T20:56:23.080Z,21.85
2022-12-15T20:59:09.190Z,21.65
2022-12-15T21:01:55.082Z,24.40
2022-12-15T21:04:41.201Z,22.00
2022-12-15T21:07:27.185Z,24.42
2022-12-15T21:10:14.501Z,23.27
2022-12-15T21:13:00.403Z,24.70
2022-12-15T21:15:46.884Z,23.95
2022-12-15T21:21:43.720Z,26.38
2022-12-15T21:24:29.808Z,25.95
2022-12-15T21:27:15.328Z,25.52
2022-12-15T21:30:00.869Z,27.65
2022-12-15T21:32:50.730Z,26.25
2022-12-15T21:35:39.227Z,25.35
2022-12-15T21:38:34.935Z,26.08
2022-12-15T21:41:22.853Z,25.85
2022-12-15T21:44:15.361Z,26.20
2022-12-15T21:47:01.136Z,26.25
2022-12-15T21:49:46.834Z,26.02
2022-12-15T21:52:32.714Z,27.55
2022-12-15T21:55:21.426Z,28.90
2022-12-15T21:58:19.254Z,29.15
2022-12-15T22:01:05.318Z,28.13
2022-12-15T22:03:53.513Z,29.15
2022-12-15T22:06:40.660Z,29.15
2022-12-15T22:09:26.297Z,26.98
2022-12-15T22:12:23.299Z,28.50
2022-12-15T22:15:21.115Z,27.17
2022-12-15T22:18:13.492Z,28.52
2022-12-15T22:20:59.160Z,27.17
2022-12-15T22:23:45.021Z,27.92
2022-12-15T22:26:31.753Z,29.58
2022-12-15T22:29:20.866Z,29.35
2022-12-15T22:32:14.726Z,26.75
2022-12-15T22:35:00.420Z,25.77
2022-12-15T22:37:47.244Z,31.58
2022-12-15T22:40:33.009Z,26.23
2022-12-15T22:43:20.070Z,28.88
2022-12-15T22:46:08.200Z,30.00
2022-12-15T22:48:54.776Z,28.95
2022-12-15T22:51:41.323Z,31.05
2022-12-15T22:54:29.049Z,32.17
2022-12-15T22:57:22.694Z,30.38
2022-12-15T23:00:11.070Z,25.58
2022-12-15T23:05:48.962Z,23.98
2022-12-15T23:08:37.728Z,22.33
2022-12-15T23:11:39.189Z,23.08
2022-12-15T23:14:44.718Z,22.52
2022-12-15T23:17:30.685Z,21.27
2022-12-15T23:20:16.350Z,21.65
2022-12-15T23:23:02.214Z,22.13
2022-12-15T23:25:48.030Z,21.55
2022-12-15T23:28:34.282Z,23.13
2022-12-15T23:31:20.662Z,21.42
2022-12-15T23:34:06.251Z,21.42
2022-12-15T23:36:51.956Z,21.25
2022-12-15T23:39:37.453Z,21.45
2022-12-15T23:42:22.957Z,21.30
2022-12-15T23:45:09.513Z,21.98
2022-12-15T23:47:55.459Z,21.73
2022-12-15T23:50:41.382Z,20.95
2022-12-15T23:53:27.283Z,19.30
2022-12-15T23:56:18.586Z,21.27
2022-12-15T23:59:04.357Z,21.17
